Terminal Aerodrome Forecast
Issued by NWS

Home | Current Version | Previous Version | Text Only | Print | Product List | Glossary On
Versions: 1 2 3 4 5 6 7 8 9 10 11 12 13 14
000
FTAK31 PAJN 251100
TAFAWG
TAF
PAWG 251132Z 2512/2612 08003KT P6SM SCT008 BKN025 OVC035
     FM251400 11005KT 6SM -RA BR BKN008 OVC020
     FM251700 12009KT 5SM -RA BR FEW015 OVC025
     FM252300 12006KT P6SM -RA SCT025 OVC050
     FM260600 12003KT 6SM -RA BR BKN015 OVC025
      AMD LTD TO CLD VIS AND WIND 2512/2515=

USA.gov is the U.S. government's official web portal to all federal, state and local government web resources and services.